createdAt,value
2018-06-09T00:01:19.429Z,21.91
2018-06-09T00:03:48.436Z,21.85
2018-06-09T00:06:17.444Z,21.83
2018-06-09T00:08:46.393Z,21.82
2018-06-09T00:11:15.354Z,21.86
2018-06-09T00:13:44.357Z,21.84
2018-06-09T00:16:13.335Z,21.85
2018-06-09T00:18:42.358Z,21.86
2018-06-09T00:21:11.335Z,21.87
2018-06-09T00:23:40.401Z,21.88
2018-06-09T00:26:09.468Z,21.87
2018-06-09T00:28:38.508Z,21.85
2018-06-09T00:31:07.667Z,21.88
2018-06-09T00:33:36.732Z,21.89
2018-06-09T00:36:05.755Z,21.96
2018-06-09T00:38:34.789Z,21.97
2018-06-09T00:41:03.862Z,21.96
2018-06-09T00:43:32.820Z,21.96
2018-06-09T00:46:01.837Z,21.98
2018-06-09T00:48:30.856Z,21.96
2018-06-09T00:50:59.878Z,21.94
2018-06-09T00:53:28.889Z,21.92
2018-06-09T00:56:08.727Z,21.85
2018-06-09T00:58:37.723Z,21.79
2018-06-09T01:01:06.739Z,21.76
2018-06-09T01:03:35.796Z,21.72
2018-06-09T01:06:04.752Z,21.70
2018-06-09T01:08:33.785Z,21.71
2018-06-09T01:11:03.688Z,21.69
2018-06-09T01:13:32.695Z,21.65
2018-06-09T01:16:01.753Z,21.61
2018-06-09T01:18:30.822Z,21.57
2018-06-09T01:20:59.785Z,21.61
2018-06-09T01:23:28.784Z,21.60
2018-06-09T01:25:57.865Z,21.53
2018-06-09T01:28:26.834Z,21.47
2018-06-09T01:30:55.832Z,21.50
2018-06-09T01:33:24.828Z,21.49
2018-06-09T01:35:53.816Z,21.47
2018-06-09T01:38:22.772Z,21.49
2018-06-09T01:40:51.773Z,21.42
2018-06-09T01:43:20.846Z,21.47
2018-06-09T01:45:49.859Z,21.49
2018-06-09T01:48:18.873Z,21.47
2018-06-09T01:50:47.929Z,21.48
2018-06-09T01:53:16.944Z,21.42
2018-06-09T01:55:45.952Z,21.38
2018-06-09T01:58:15.005Z,21.30
2018-06-09T02:00:43.957Z,21.30
2018-06-09T02:03:12.962Z,21.25
2018-06-09T02:05:41.913Z,21.15
2018-06-09T02:08:10.867Z,21.13
2018-06-09T02:10:39.899Z,21.05
2018-06-09T02:13:08.902Z,20.97
2018-06-09T02:15:37.913Z,20.91
2018-06-09T02:18:06.892Z,20.88
2018-06-09T02:20:35.887Z,20.79
2018-06-09T02:23:04.946Z,20.76
2018-06-09T02:25:33.948Z,20.74
2018-06-09T02:28:02.965Z,20.71
2018-06-09T02:30:31.920Z,20.64
2018-06-09T02:33:00.862Z,20.66
2018-06-09T02:35:30.017Z,20.59
2018-06-09T02:37:59.041Z,20.53
2018-06-09T02:40:28.053Z,20.53
2018-06-09T02:42:57.057Z,20.50
2018-06-09T02:45:25.987Z,20.50
2018-06-09T02:47:55.005Z,20.53
2018-06-09T02:50:23.959Z,20.56
2018-06-09T02:52:52.915Z,20.61
2018-06-09T02:55:21.884Z,20.62
2018-06-09T02:57:50.831Z,20.63
2018-06-09T03:00:19.836Z,20.68
2018-06-09T03:02:48.963Z,20.66
2018-06-09T03:05:17.972Z,20.66
2018-06-09T03:07:47.038Z,20.76
2018-06-09T03:10:16.095Z,20.87
2018-06-09T03:12:45.119Z,20.99
2018-06-09T03:15:14.113Z,21.11
2018-06-09T03:17:43.073Z,21.24
2018-06-09T03:20:12.089Z,21.39
2018-06-09T03:22:41.157Z,21.51
2018-06-09T03:25:10.168Z,21.65
2018-06-09T03:30:06.999Z,21.88
2018-06-09T03:32:36.047Z,22.01
2018-06-09T03:35:05.108Z,22.17
2018-06-09T03:37:34.127Z,22.35
2018-06-09T03:40:03.156Z,22.65
2018-06-09T03:42:32.167Z,22.97
2018-06-09T03:45:01.259Z,23.32
2018-06-09T03:47:30.300Z,23.90
2018-06-09T03:49:59.312Z,24.53
2018-06-09T03:52:28.312Z,24.71
2018-06-09T03:54:57.288Z,24.82
2018-06-09T03:57:26.252Z,25.42
2018-06-09T03:59:55.249Z,25.88
2018-06-09T04:02:24.267Z,25.98
2018-06-09T04:04:53.319Z,26.75
2018-06-09T04:07:22.356Z,27.41
2018-06-09T04:09:51.398Z,28.15
2018-06-09T04:12:20.413Z,28.79
2018-06-09T04:14:49.428Z,29.24
2018-06-09T04:17:18.445Z,29.91
2018-06-09T04:19:47.384Z,30.26
2018-06-09T04:22:16.395Z,30.60
2018-06-09T04:24:45.461Z,30.78
2018-06-09T04:27:14.508Z,31.13
2018-06-09T04:29:43.536Z,31.29
2018-06-09T04:32:12.527Z,31.80
2018-06-09T04:34:41.509Z,31.77
2018-06-09T04:37:10.506Z,31.75
2018-06-09T04:39:39.537Z,31.99
2018-06-09T04:42:08.575Z,32.51
2018-06-09T04:44:37.511Z,33.02
2018-06-09T04:47:06.565Z,33.73
2018-06-09T04:49:35.504Z,33.87
2018-06-09T04:52:04.623Z,33.42
2018-06-09T04:54:33.664Z,33.59
2018-06-09T04:57:02.661Z,34.12
2018-06-09T04:59:31.672Z,34.69
2018-06-09T05:02:00.841Z,34.64
2018-06-09T05:04:29.916Z,34.79
2018-06-09T05:06:58.920Z,35.99
2018-06-09T05:09:27.859Z,36.67
2018-06-09T05:11:56.813Z,36.76
2018-06-09T05:14:25.877Z,36.87
2018-06-09T05:16:54.948Z,36.59
2018-06-09T05:19:23.962Z,36.47
2018-06-09T05:21:52.948Z,36.27
2018-06-09T05:24:21.964Z,36.36
2018-06-09T05:26:50.969Z,36.79
2018-06-09T05:29:20.140Z,35.86
2018-06-09T05:31:49.100Z,35.20
2018-06-09T05:34:20.115Z,35.31
2018-06-09T05:36:49.084Z,36.08
2018-06-09T05:39:18.067Z,36.25
2018-06-09T05:41:47.167Z,36.50
2018-06-09T05:44:16.232Z,37.24
2018-06-09T05:46:45.261Z,37.31
2018-06-09T05:49:14.282Z,36.92
2018-06-09T05:51:43.294Z,36.83
2018-06-09T05:54:12.727Z,37.25
2018-06-09T05:56:41.679Z,37.20
2018-06-09T05:59:10.664Z,37.38
2018-06-09T06:01:39.632Z,37.87
2018-06-09T06:04:08.656Z,38.68
2018-06-09T06:06:37.732Z,38.34
2018-06-09T06:09:08.401Z,38.40
2018-06-09T06:11:37.434Z,38.81
2018-06-09T06:14:06.372Z,38.24
2018-06-09T06:16:35.477Z,38.33
2018-06-09T06:19:04.536Z,37.99
2018-06-09T06:21:33.549Z,37.45
2018-06-09T06:24:02.589Z,37.52
2018-06-09T06:26:31.656Z,37.52
2018-06-09T06:29:00.587Z,37.52
2018-06-09T06:31:29.895Z,36.45
2018-06-09T06:33:58.876Z,35.60
2018-06-09T06:36:27.928Z,35.54
2018-06-09T06:38:56.936Z,35.74
2018-06-09T06:41:26.516Z,35.56
2018-06-09T06:43:55.625Z,35.87
2018-06-09T06:46:24.648Z,35.95
2018-06-09T06:48:53.719Z,36.15
2018-06-09T06:51:22.752Z,37.11
2018-06-09T06:53:51.920Z,37.59
2018-06-09T06:56:21.037Z,37.39
2018-06-09T06:58:50.081Z,37.24
2018-06-09T07:01:19.030Z,36.74
2018-06-09T07:03:48.057Z,36.48
2018-06-09T07:06:17.037Z,36.49
2018-06-09T07:08:46.044Z,36.65
2018-06-09T07:11:14.992Z,36.71
2018-06-09T07:13:44.001Z,36.45
2018-06-09T07:16:13.052Z,35.67
2018-06-09T07:18:42.094Z,34.83
2018-06-09T07:21:11.128Z,34.33
2018-06-09T07:23:40.190Z,33.78
2018-06-09T07:26:09.199Z,33.34
2018-06-09T07:28:38.171Z,33.57
2018-06-09T07:31:07.144Z,34.31
2018-06-09T07:33:36.208Z,35.12
2018-06-09T07:36:05.193Z,35.98
2018-06-09T07:38:34.244Z,36.19
2018-06-09T07:41:03.306Z,36.59
2018-06-09T07:43:32.289Z,36.27
2018-06-09T07:46:01.421Z,35.92
2018-06-09T07:48:30.436Z,35.62
2018-06-09T07:50:59.514Z,35.34
2018-06-09T07:53:28.606Z,35.53
2018-06-09T07:55:57.683Z,35.61
2018-06-09T07:58:26.756Z,35.61
2018-06-09T08:00:55.815Z,35.71
2018-06-09T08:03:24.777Z,35.99
2018-06-09T08:05:53.741Z,36.20
2018-06-09T08:08:22.763Z,36.47
2018-06-09T08:10:51.949Z,36.47
2018-06-09T08:13:20.901Z,36.22
2018-06-09T08:15:49.853Z,36.23
2018-06-09T08:18:18.880Z,36.36
2018-06-09T08:20:47.860Z,36.62
2018-06-09T08:23:16.868Z,36.45
2018-06-09T08:25:45.885Z,36.30
2018-06-09T08:28:14.869Z,36.45
2018-06-09T08:30:43.831Z,36.24
2018-06-09T08:33:12.829Z,36.39
2018-06-09T08:35:41.870Z,36.10
2018-06-09T08:38:10.857Z,35.84
2018-06-09T08:40:39.945Z,35.84
2018-06-09T08:43:08.928Z,35.69
2018-06-09T08:45:37.954Z,35.53
2018-06-09T08:48:07.109Z,35.17
2018-06-09T08:50:36.109Z,35.22
2018-06-09T08:53:05.116Z,35.01
2018-06-09T08:55:34.249Z,35.26
2018-06-09T08:58:03.282Z,35.54
2018-06-09T09:00:32.440Z,35.76
2018-06-09T09:03:01.413Z,35.78
2018-06-09T09:05:30.444Z,35.84
2018-06-09T09:07:59.537Z,35.90
2018-06-09T09:10:28.497Z,35.87
2018-06-09T09:12:57.649Z,35.62
2018-06-09T09:15:26.689Z,35.52
2018-06-09T09:17:55.673Z,35.32
2018-06-09T09:20:24.650Z,35.15
2018-06-09T09:22:53.633Z,35.01
2018-06-09T09:25:22.662Z,35.40
2018-06-09T09:27:51.680Z,35.62
2018-06-09T09:30:20.698Z,35.74
2018-06-09T09:32:49.673Z,35.63
2018-06-09T09:35:18.655Z,35.67
2018-06-09T09:37:47.802Z,35.36
2018-06-09T09:40:16.805Z,34.85
2018-06-09T09:42:45.850Z,34.65
2018-06-09T09:45:15.293Z,34.86
2018-06-09T09:47:44.336Z,34.92
2018-06-09T09:50:13.486Z,34.99
2018-06-09T09:52:42.588Z,35.06
2018-06-09T09:55:11.572Z,34.80
2018-06-09T09:57:51.625Z,34.31
2018-06-09T10:00:23.677Z,34.21
2018-06-09T10:02:52.680Z,34.59
2018-06-09T10:05:21.710Z,34.95
2018-06-09T10:07:50.717Z,35.21
2018-06-09T10:10:19.787Z,35.79
2018-06-09T10:12:48.763Z,35.50
2018-06-09T10:15:17.737Z,34.97
2018-06-09T10:17:46.772Z,35.28
2018-06-09T10:20:15.845Z,35.34
2018-06-09T10:22:44.869Z,34.44
2018-06-09T10:25:13.829Z,34.38
2018-06-09T10:27:42.881Z,34.16
2018-06-09T10:30:11.963Z,34.45
2018-06-09T10:32:41.089Z,34.18
2018-06-09T10:35:10.046Z,34.59
2018-06-09T10:37:39.076Z,34.81
2018-06-09T10:40:08.058Z,35.36
2018-06-09T10:42:37.027Z,35.75
2018-06-09T10:45:06.102Z,36.33
2018-06-09T10:47:35.069Z,36.71
2018-06-09T10:50:04.085Z,37.39
2018-06-09T10:52:33.120Z,38.00
2018-06-09T10:55:02.152Z,38.60
2018-06-09T10:57:31.526Z,38.79
2018-06-09T11:00:00.519Z,39.05
2018-06-09T11:02:29.533Z,39.73
2018-06-09T11:04:58.628Z,39.37
2018-06-09T11:07:27.639Z,39.58
2018-06-09T11:09:56.872Z,39.67
2018-06-09T11:12:25.921Z,40.52
2018-06-09T11:14:54.926Z,40.61
2018-06-09T11:17:24.029Z,40.47
2018-06-09T11:19:53.052Z,39.89
2018-06-09T11:22:22.064Z,39.21
2018-06-09T11:24:51.191Z,38.82
2018-06-09T11:27:20.236Z,39.24
2018-06-09T11:29:49.220Z,39.41
2018-06-09T11:32:18.244Z,39.55
2018-06-09T11:34:47.328Z,39.47
2018-06-09T11:37:16.292Z,39.83
2018-06-09T11:39:45.248Z,40.29
2018-06-09T11:42:14.216Z,40.47
2018-06-09T11:44:43.263Z,40.73
2018-06-09T11:47:12.376Z,40.87
2018-06-09T11:49:41.405Z,40.40
2018-06-09T11:52:10.408Z,40.76
2018-06-09T11:54:39.367Z,41.22
2018-06-09T11:57:08.367Z,41.28
2018-06-09T11:59:37.376Z,41.25
2018-06-09T12:02:06.395Z,41.62
2018-06-09T12:04:35.441Z,41.56
2018-06-09T12:07:04.424Z,41.58
2018-06-09T12:09:33.381Z,41.94
2018-06-09T12:12:02.501Z,42.09
2018-06-09T12:14:31.484Z,41.56
2018-06-09T12:17:00.500Z,41.84
2018-06-09T12:19:29.517Z,41.17
2018-06-09T12:21:58.520Z,41.55
2018-06-09T12:24:27.556Z,40.83
2018-06-09T12:26:56.500Z,40.97
2018-06-09T12:29:25.578Z,41.34
2018-06-09T12:31:54.622Z,40.66
2018-06-09T12:34:23.584Z,39.70
2018-06-09T12:36:52.647Z,39.02
2018-06-09T12:39:21.660Z,39.89
2018-06-09T12:41:50.736Z,40.43
2018-06-09T12:44:19.759Z,40.31
2018-06-09T12:46:48.809Z,40.32
2018-06-09T12:49:17.832Z,40.94
2018-06-09T12:51:46.782Z,40.82
2018-06-09T12:54:15.844Z,41.37
2018-06-09T12:56:44.828Z,41.49
2018-06-09T12:59:13.897Z,41.08
2018-06-09T13:01:42.924Z,40.34
2018-06-09T13:04:11.865Z,40.76
2018-06-09T13:06:40.878Z,40.12
2018-06-09T13:09:10.017Z,39.25
2018-06-09T13:11:39.038Z,39.60
2018-06-09T13:14:08.207Z,39.56
2018-06-09T13:16:37.237Z,39.55
2018-06-09T13:19:06.252Z,39.60
2018-06-09T13:21:35.285Z,40.09
2018-06-09T13:24:04.349Z,39.46
2018-06-09T13:26:33.375Z,39.52
2018-06-09T13:29:02.392Z,38.98
2018-06-09T13:31:31.336Z,38.87
2018-06-09T13:34:00.337Z,38.69
2018-06-09T13:36:29.348Z,38.29
2018-06-09T13:38:58.421Z,38.00
2018-06-09T13:41:27.480Z,38.07
2018-06-09T13:43:56.499Z,38.33
2018-06-09T13:46:25.593Z,38.51
2018-06-09T13:48:54.547Z,38.41
2018-06-09T13:51:23.563Z,38.29
2018-06-09T13:53:52.516Z,38.01
2018-06-09T13:56:21.497Z,36.98
2018-06-09T13:58:50.554Z,36.62
2018-06-09T14:01:19.609Z,36.05
2018-06-09T14:03:48.701Z,35.87
2018-06-09T14:06:17.656Z,35.84
2018-06-09T14:08:46.733Z,35.65
2018-06-09T14:11:15.773Z,35.19
2018-06-09T14:13:44.798Z,35.04
2018-06-09T14:16:13.889Z,35.19
2018-06-09T14:18:42.921Z,34.95
2018-06-09T14:21:11.884Z,34.58
2018-06-09T14:23:40.864Z,34.39
2018-06-09T14:26:09.816Z,34.50
2018-06-09T14:28:38.840Z,34.41
2018-06-09T14:31:07.909Z,34.48
2018-06-09T14:33:36.976Z,34.46
2018-06-09T14:36:06.026Z,34.43
2018-06-09T14:38:35.106Z,34.23
2018-06-09T14:41:04.120Z,33.91
2018-06-09T14:43:33.180Z,33.92
2018-06-09T14:46:02.168Z,33.73
2018-06-09T14:48:31.186Z,33.79
2018-06-09T14:51:00.144Z,33.80
2018-06-09T14:53:29.152Z,33.81
2018-06-09T14:55:58.097Z,33.83
2018-06-09T14:58:27.119Z,33.73
2018-06-09T15:00:56.060Z,33.31
2018-06-09T15:03:25.113Z,33.08
2018-06-09T15:05:54.232Z,33.11
2018-06-09T15:08:23.200Z,33.13
2018-06-09T15:10:52.276Z,33.11
2018-06-09T15:13:21.248Z,33.13
2018-06-09T15:15:50.216Z,33.09
2018-06-09T15:18:19.230Z,33.06
2018-06-09T15:20:48.193Z,32.92
2018-06-09T15:23:17.193Z,32.80
2018-06-09T15:25:46.160Z,32.64
2018-06-09T15:28:15.273Z,32.63
2018-06-09T15:30:44.427Z,32.48
2018-06-09T15:33:13.498Z,32.35
2018-06-09T15:35:42.461Z,32.14
2018-06-09T15:38:11.529Z,31.98
2018-06-09T15:40:40.479Z,31.90
2018-06-09T15:43:09.536Z,31.86
2018-06-09T15:45:38.493Z,31.84
2018-06-09T15:48:07.437Z,31.76
2018-06-09T15:50:36.398Z,31.62
2018-06-09T15:53:05.408Z,31.49
2018-06-09T15:55:34.546Z,31.40
2018-06-09T15:58:03.618Z,31.39
2018-06-09T16:00:32.577Z,31.28
2018-06-09T16:03:01.532Z,31.22
2018-06-09T16:05:30.535Z,31.06
2018-06-09T16:07:59.548Z,30.97
2018-06-09T16:10:28.558Z,30.85
2018-06-09T16:12:57.527Z,30.74
2018-06-09T16:15:26.574Z,30.69
2018-06-09T16:17:55.536Z,30.58
2018-06-09T16:20:24.617Z,30.49
2018-06-09T16:22:53.628Z,30.34
2018-06-09T16:25:22.742Z,30.29
2018-06-09T16:27:51.709Z,30.19
2018-06-09T16:30:20.729Z,30.17
2018-06-09T16:32:49.721Z,30.08
2018-06-09T16:35:18.726Z,29.87
2018-06-09T16:37:47.756Z,29.85
2018-06-09T16:40:16.783Z,29.76
2018-06-09T16:42:45.822Z,29.72
2018-06-09T16:45:14.901Z,29.66
2018-06-09T16:47:43.909Z,29.60
2018-06-09T16:50:12.868Z,29.55
2018-06-09T16:52:41.880Z,29.46
2018-06-09T16:55:10.881Z,29.39
2018-06-09T16:57:39.901Z,29.33
2018-06-09T17:00:08.852Z,29.22
2018-06-09T17:02:37.910Z,29.10
2018-06-09T17:05:06.969Z,28.98
2018-06-09T17:07:36.012Z,28.85
2018-06-09T17:10:05.114Z,28.71
2018-06-09T17:12:34.137Z,28.54
2018-06-09T17:15:03.141Z,28.35
2018-06-09T17:17:32.105Z,28.23
2018-06-09T17:20:01.060Z,28.11
2018-06-09T17:22:30.060Z,27.96
2018-06-09T17:24:59.040Z,27.80
2018-06-09T17:27:27.983Z,27.76
2018-06-09T17:29:57.005Z,27.68
2018-06-09T17:32:26.073Z,27.61
2018-06-09T17:34:55.132Z,27.53
2018-06-09T17:37:24.193Z,27.52
2018-06-09T17:39:53.214Z,27.50
2018-06-09T17:42:22.284Z,27.45
2018-06-09T17:44:51.234Z,27.40
2018-06-09T17:47:20.290Z,27.36
2018-06-09T17:49:49.364Z,27.26
2018-06-09T17:52:18.462Z,27.18
2018-06-09T17:54:47.500Z,27.13
2018-06-09T17:57:16.499Z,27.12
2018-06-09T17:59:45.589Z,27.09
2018-06-09T18:02:14.621Z,27.01
2018-06-09T18:04:43.661Z,26.93
2018-06-09T18:07:13.628Z,26.96
2018-06-09T18:09:42.577Z,26.88
2018-06-09T18:12:11.687Z,26.79
2018-06-09T18:14:40.742Z,26.70
2018-06-09T18:17:09.746Z,26.65
2018-06-09T18:19:38.805Z,26.60
2018-06-09T18:22:07.885Z,26.60
2018-06-09T18:24:37.029Z,26.59
2018-06-09T18:27:06.073Z,26.56
2018-06-09T18:29:35.101Z,26.50
2018-06-09T18:32:04.156Z,26.47
2018-06-09T18:34:33.128Z,26.46
2018-06-09T18:37:02.166Z,26.44
2018-06-09T18:39:31.244Z,26.42
2018-06-09T18:42:00.220Z,26.41
2018-06-09T18:44:29.429Z,26.34
2018-06-09T18:46:58.497Z,26.30
2018-06-09T18:49:27.670Z,26.20
2018-06-09T18:51:56.628Z,26.12
2018-06-09T18:54:25.623Z,26.03
2018-06-09T18:56:54.656Z,25.92
2018-06-09T18:59:23.677Z,25.89
2018-06-09T19:01:52.746Z,25.80
2018-06-09T19:04:21.757Z,25.62
2018-06-09T19:06:50.784Z,25.72
2018-06-09T19:09:19.756Z,25.71
2018-06-09T19:11:48.732Z,25.60
2018-06-09T19:14:17.789Z,25.53
2018-06-09T19:16:46.741Z,25.51
2018-06-09T19:19:15.712Z,25.46
2018-06-09T19:21:44.733Z,25.37
2018-06-09T19:24:13.745Z,25.29
2018-06-09T19:26:42.773Z,25.23
2018-06-09T19:29:11.733Z,25.17
2018-06-09T19:31:40.810Z,25.11
2018-06-09T19:34:09.801Z,25.06
2018-06-09T19:36:38.884Z,25.02
2018-06-09T19:39:08.816Z,24.99
2018-06-09T19:41:37.938Z,24.96
2018-06-09T19:44:07.025Z,24.94
2018-06-09T19:46:36.081Z,24.92
2018-06-09T19:49:05.097Z,24.88
2018-06-09T19:51:34.144Z,24.82
2018-06-09T19:54:03.175Z,24.79
2018-06-09T19:56:32.156Z,24.72
2018-06-09T19:59:01.130Z,24.71
2018-06-09T20:01:30.180Z,24.68
2018-06-09T20:03:59.278Z,24.68
2018-06-09T20:06:28.347Z,24.70
2018-06-09T20:08:57.458Z,24.66
2018-06-09T20:11:26.477Z,24.67
2018-06-09T20:13:55.498Z,24.71
2018-06-09T20:16:24.589Z,24.80
2018-06-09T20:18:53.620Z,24.88
2018-06-09T20:21:22.658Z,24.85
2018-06-09T20:23:51.763Z,24.83
2018-06-09T20:26:20.705Z,24.80
2018-06-09T20:28:49.761Z,24.75
2018-06-09T20:31:18.746Z,24.70
2018-06-09T20:33:47.757Z,24.63
2018-06-09T20:36:16.789Z,24.56
2018-06-09T20:38:45.836Z,24.50
2018-06-09T20:41:14.929Z,24.42
2018-06-09T20:43:43.897Z,24.34
2018-06-09T20:46:12.894Z,24.26
2018-06-09T20:48:41.957Z,24.22
2018-06-09T20:51:10.989Z,24.16
2018-06-09T20:53:40.086Z,24.10
2018-06-09T20:56:09.104Z,24.03
2018-06-09T20:58:40.960Z,23.97
2018-06-09T21:01:09.992Z,23.94
2018-06-09T21:03:39.014Z,23.93
2018-06-09T21:06:08.023Z,23.88
2018-06-09T21:08:36.983Z,23.84
2018-06-09T21:11:05.983Z,23.83
2018-06-09T21:13:35.006Z,23.78
2018-06-09T21:16:04.021Z,23.73
2018-06-09T21:18:33.044Z,23.67
2018-06-09T21:21:02.069Z,23.65
2018-06-09T21:23:31.088Z,23.64
2018-06-09T21:26:00.041Z,23.62
2018-06-09T21:28:33.228Z,23.60
2018-06-09T21:31:07.256Z,23.60
2018-06-09T21:33:52.537Z,23.54
2018-06-09T21:36:26.580Z,23.50
2018-06-09T21:39:00.630Z,23.50
2018-06-09T21:41:35.352Z,23.60
2018-06-09T21:44:09.492Z,23.69
2018-06-09T21:46:43.651Z,23.74
2018-06-09T21:49:12.744Z,23.78
2018-06-09T21:51:41.780Z,23.79
2018-06-09T21:54:10.731Z,23.78
2018-06-09T21:56:39.761Z,23.83
2018-06-09T21:59:08.804Z,23.81
2018-06-09T22:01:38.440Z,23.82
2018-06-09T22:04:07.449Z,23.81
2018-06-09T22:06:36.460Z,23.78
2018-06-09T22:09:06.971Z,23.71
2018-06-09T22:11:36.057Z,23.69
2018-06-09T22:14:05.285Z,23.71
2018-06-09T22:16:34.256Z,23.63
2018-06-09T22:19:03.286Z,23.63
2018-06-09T22:21:32.281Z,23.61
2018-06-09T22:24:01.258Z,23.60
2018-06-09T22:26:30.320Z,23.58
2018-06-09T22:28:59.329Z,23.57
2018-06-09T22:31:28.356Z,23.52
2018-06-09T22:33:57.362Z,23.46
2018-06-09T22:36:26.378Z,23.41
2018-06-09T22:38:55.418Z,23.35
2018-06-09T22:41:24.576Z,23.31
2018-06-09T22:43:53.694Z,23.26
2018-06-09T22:46:22.717Z,23.20
2018-06-09T22:48:51.758Z,23.08
2018-06-09T22:51:20.715Z,22.98
2018-06-09T22:53:49.774Z,22.93
2018-06-09T22:56:18.826Z,22.87
2018-06-09T22:58:47.774Z,22.80
2018-06-09T23:01:16.787Z,22.74
2018-06-09T23:03:45.816Z,22.65
2018-06-09T23:06:14.777Z,22.63
2018-06-09T23:08:43.853Z,22.55
2018-06-09T23:11:12.828Z,22.49
2018-06-09T23:13:41.829Z,22.43
2018-06-09T23:16:10.856Z,22.33
2018-06-09T23:18:39.836Z,22.35
2018-06-09T23:21:08.840Z,22.31
2018-06-09T23:23:37.901Z,22.29
2018-06-09T23:26:06.872Z,22.26
2018-06-09T23:28:35.892Z,22.27
2018-06-09T23:31:04.917Z,22.27
2018-06-09T23:33:33.989Z,22.21
2018-06-09T23:36:03.001Z,22.19
2018-06-09T23:38:32.023Z,22.13
2018-06-09T23:41:01.049Z,22.08
2018-06-09T23:43:30.048Z,22.06
2018-06-09T23:45:59.182Z,22.03
2018-06-09T23:48:28.147Z,22.05
2018-06-09T23:50:57.179Z,22.10
2018-06-09T23:53:26.140Z,22.08
2018-06-09T23:55:55.104Z,22.09
2018-06-09T23:58:24.107Z,22.09
